createdAt,value
2017-07-23T00:01:16.184Z,18.38
2017-07-23T00:03:45.636Z,18.32
2017-07-23T00:06:15.075Z,18.31
2017-07-23T00:08:44.523Z,18.31
2017-07-23T00:11:13.969Z,18.34
2017-07-23T00:13:43.408Z,18.34
2017-07-23T00:16:12.877Z,18.43
2017-07-23T00:18:42.384Z,18.39
2017-07-23T00:21:11.836Z,18.33
2017-07-23T00:23:41.289Z,18.33
2017-07-23T00:26:10.737Z,18.37
2017-07-23T00:28:40.177Z,18.45
2017-07-23T00:31:09.631Z,18.49
2017-07-23T00:33:39.071Z,18.51
2017-07-23T00:36:08.533Z,18.55
2017-07-23T00:38:37.964Z,18.58
2017-07-23T00:41:07.412Z,18.60
2017-07-23T00:43:36.878Z,18.62
2017-07-23T00:46:06.337Z,18.64
2017-07-23T00:48:35.781Z,18.66
2017-07-23T00:51:05.225Z,18.69
2017-07-23T00:53:34.704Z,18.70
2017-07-23T00:56:04.134Z,18.70
2017-07-23T00:58:33.588Z,18.72
2017-07-23T01:01:03.831Z,18.72
2017-07-23T01:03:33.265Z,18.71
2017-07-23T01:06:02.716Z,18.73
2017-07-23T01:08:31.984Z,18.72
2017-07-23T01:11:01.440Z,18.70
2017-07-23T01:13:30.873Z,18.70
2017-07-23T01:16:00.323Z,18.71
2017-07-23T01:18:29.781Z,18.74
2017-07-23T01:20:59.222Z,18.79
2017-07-23T01:23:28.661Z,18.81
2017-07-23T01:25:58.098Z,18.83
2017-07-23T01:28:27.548Z,18.84
2017-07-23T01:30:57.013Z,18.85
2017-07-23T01:33:26.465Z,18.84
2017-07-23T01:35:55.931Z,18.82
2017-07-23T01:38:25.380Z,18.81
2017-07-23T01:40:54.811Z,18.82
2017-07-23T01:43:24.260Z,18.83
2017-07-23T01:45:53.384Z,18.82
2017-07-23T01:48:22.810Z,18.86
2017-07-23T01:50:52.245Z,18.85
2017-07-23T01:53:21.685Z,18.85
2017-07-23T01:55:50.788Z,18.86
2017-07-23T01:58:19.875Z,18.91
2017-07-23T02:00:49.337Z,18.94
2017-07-23T02:03:18.776Z,18.97
2017-07-23T02:05:48.222Z,18.99
2017-07-23T02:08:17.656Z,19.06
2017-07-23T02:10:47.111Z,19.14
2017-07-23T02:13:16.648Z,19.35
2017-07-23T02:15:46.080Z,19.40
2017-07-23T02:18:15.528Z,19.50
2017-07-23T02:20:44.968Z,19.52
2017-07-23T02:23:14.434Z,19.56
2017-07-23T02:25:43.896Z,19.62
2017-07-23T02:28:14.155Z,19.65
2017-07-23T02:30:43.613Z,19.64
2017-07-23T02:33:13.749Z,19.64
2017-07-23T02:35:43.255Z,19.63
2017-07-23T02:38:12.697Z,19.62
2017-07-23T02:40:42.148Z,19.63
2017-07-23T02:43:11.588Z,19.64
2017-07-23T02:45:41.073Z,19.64
2017-07-23T02:48:11.196Z,19.67
2017-07-23T02:50:40.632Z,19.69
2017-07-23T02:53:10.100Z,19.73
2017-07-23T02:55:39.555Z,19.74
2017-07-23T02:58:08.994Z,19.75
2017-07-23T03:00:38.442Z,19.77
2017-07-23T03:03:07.984Z,19.77
2017-07-23T03:05:37.071Z,19.77
2017-07-23T03:08:07.361Z,19.84
2017-07-23T03:10:36.812Z,19.88
2017-07-23T03:13:06.252Z,19.92
2017-07-23T03:15:35.700Z,19.94
2017-07-23T03:18:05.151Z,19.94
2017-07-23T03:20:34.593Z,19.96
2017-07-23T03:23:03.904Z,19.97
2017-07-23T03:25:33.157Z,19.97
2017-07-23T03:28:02.593Z,19.97
2017-07-23T03:30:32.038Z,19.99
2017-07-23T03:33:01.476Z,20.00
2017-07-23T03:35:31.034Z,20.01
2017-07-23T03:38:00.458Z,20.04
2017-07-23T03:40:29.900Z,20.02
2017-07-23T03:42:59.351Z,19.99
2017-07-23T03:45:28.802Z,19.94
2017-07-23T03:47:58.242Z,19.90
2017-07-23T03:50:27.681Z,19.81
2017-07-23T03:52:57.125Z,19.88
2017-07-23T03:55:26.579Z,19.87
2017-07-23T03:57:56.017Z,19.78
2017-07-23T04:00:25.517Z,19.67
2017-07-23T04:02:54.957Z,19.72
2017-07-23T04:05:24.570Z,19.65
2017-07-23T04:07:54.032Z,19.74
2017-07-23T04:10:23.505Z,19.69
2017-07-23T04:12:52.940Z,19.70
2017-07-23T04:15:22.421Z,19.63
2017-07-23T04:17:51.860Z,19.59
2017-07-23T04:20:21.355Z,19.59
2017-07-23T04:22:50.925Z,19.56
2017-07-23T04:25:20.409Z,19.57
2017-07-23T04:27:49.866Z,19.63
2017-07-23T04:30:19.342Z,19.68
2017-07-23T04:32:48.788Z,19.62
2017-07-23T04:35:18.285Z,19.55
2017-07-23T04:37:47.718Z,19.59
2017-07-23T04:40:17.336Z,19.53
2017-07-23T04:42:46.756Z,19.48
2017-07-23T04:45:16.273Z,19.51
2017-07-23T04:47:45.703Z,19.55
2017-07-23T04:50:15.208Z,19.52
2017-07-23T04:52:44.644Z,19.57
2017-07-23T04:55:14.146Z,19.60
2017-07-23T04:57:43.668Z,19.61
2017-07-23T05:00:13.142Z,19.63
2017-07-23T05:02:42.590Z,19.62
2017-07-23T05:05:12.105Z,19.60
2017-07-23T05:07:41.544Z,19.60
2017-07-23T05:10:11.037Z,19.52
2017-07-23T05:12:40.471Z,19.50
2017-07-23T05:15:09.949Z,19.47
2017-07-23T05:17:39.397Z,19.36
2017-07-23T05:20:08.885Z,19.26
2017-07-23T05:22:38.321Z,19.25
2017-07-23T05:25:08.045Z,19.20
2017-07-23T05:27:37.652Z,19.18
2017-07-23T05:30:07.568Z,19.13
2017-07-23T05:32:37.050Z,19.11
2017-07-23T05:35:07.075Z,19.11
2017-07-23T05:37:36.576Z,19.08
2017-07-23T05:40:06.068Z,19.08
2017-07-23T05:42:35.508Z,19.07
2017-07-23T05:45:05.091Z,19.05
2017-07-23T05:47:34.529Z,19.06
2017-07-23T05:50:04.011Z,19.03
2017-07-23T05:52:33.451Z,19.03
2017-07-23T05:55:02.928Z,19.08
2017-07-23T05:57:32.370Z,19.18
2017-07-23T06:00:02.071Z,19.26
2017-07-23T06:02:31.322Z,19.48
2017-07-23T06:05:00.768Z,19.76
2017-07-23T06:07:30.216Z,20.01
2017-07-23T06:09:59.690Z,20.22
2017-07-23T06:12:29.142Z,20.39
2017-07-23T06:14:58.577Z,20.60
2017-07-23T06:17:28.011Z,20.86
2017-07-23T06:19:57.462Z,21.11
2017-07-23T06:22:26.943Z,21.38
2017-07-23T06:24:56.368Z,21.62
2017-07-23T06:27:25.804Z,21.85
2017-07-23T06:29:55.253Z,21.99
2017-07-23T06:32:24.511Z,22.19
2017-07-23T06:34:53.983Z,22.39
2017-07-23T06:37:23.508Z,22.28
2017-07-23T06:39:52.944Z,22.28
2017-07-23T06:42:22.402Z,22.16
2017-07-23T06:44:51.850Z,22.39
2017-07-23T06:47:23.070Z,22.45
2017-07-23T06:49:52.496Z,22.47
2017-07-23T06:52:21.952Z,22.37
2017-07-23T06:54:51.408Z,22.38
2017-07-23T06:57:20.860Z,22.29
2017-07-23T06:59:50.656Z,22.23
2017-07-23T07:02:20.449Z,22.35
2017-07-23T07:04:50.469Z,22.18
2017-07-23T07:07:20.025Z,22.00
2017-07-23T07:09:49.454Z,22.07
2017-07-23T07:12:19.137Z,22.00
2017-07-23T07:14:49.061Z,22.35
2017-07-23T07:17:18.597Z,22.52
2017-07-23T07:19:48.316Z,22.61
2017-07-23T07:22:18.313Z,22.74
2017-07-23T07:24:48.108Z,22.84
2017-07-23T07:27:17.653Z,23.01
2017-07-23T07:29:47.114Z,22.95
2017-07-23T07:32:17.239Z,23.15
2017-07-23T07:34:46.839Z,23.10
2017-07-23T07:37:16.288Z,23.54
2017-07-23T07:39:45.757Z,23.52
2017-07-23T07:42:15.018Z,23.62
2017-07-23T07:44:45.089Z,22.89
2017-07-23T07:47:14.895Z,22.72
2017-07-23T07:49:44.332Z,22.73
2017-07-23T07:52:14.429Z,22.58
2017-07-23T07:54:44.831Z,22.42
2017-07-23T07:57:15.034Z,22.41
2017-07-23T07:59:45.112Z,22.38
2017-07-23T08:02:14.713Z,22.58
2017-07-23T08:04:45.561Z,22.66
2017-07-23T08:07:15.295Z,22.89
2017-07-23T08:09:44.740Z,22.93
2017-07-23T08:12:15.491Z,22.95
2017-07-23T08:14:46.105Z,23.02
2017-07-23T08:17:15.673Z,22.90
2017-07-23T08:19:45.534Z,22.97
2017-07-23T08:22:15.952Z,23.13
2017-07-23T08:24:46.474Z,22.99
2017-07-23T08:27:16.002Z,23.14
2017-07-23T08:29:45.764Z,23.36
2017-07-23T08:32:15.347Z,23.51
2017-07-23T08:34:46.441Z,23.89
2017-07-23T08:37:17.385Z,23.85
2017-07-23T08:39:47.228Z,23.90
2017-07-23T08:42:16.941Z,24.12
2017-07-23T08:44:46.370Z,24.41
2017-07-23T08:47:16.578Z,24.51
2017-07-23T08:49:46.506Z,24.48
2017-07-23T08:52:16.384Z,24.23
2017-07-23T08:54:46.244Z,24.38
2017-07-23T08:57:15.692Z,24.39
2017-07-23T08:59:45.137Z,24.65
2017-07-23T09:02:14.597Z,24.72
2017-07-23T09:04:44.246Z,24.61
2017-07-23T09:07:14.007Z,24.38
2017-07-23T09:09:43.915Z,24.33
2017-07-23T09:12:13.841Z,23.74
2017-07-23T09:14:43.718Z,23.94
2017-07-23T09:17:13.422Z,24.14
2017-07-23T09:19:43.584Z,24.55
2017-07-23T09:22:13.049Z,24.79
2017-07-23T09:24:42.470Z,24.44
2017-07-23T09:27:11.926Z,24.42
2017-07-23T09:29:41.365Z,24.86
2017-07-23T09:32:10.848Z,24.96
2017-07-23T09:34:40.325Z,25.42
2017-07-23T09:37:09.793Z,25.49
2017-07-23T09:39:39.236Z,25.28
2017-07-23T09:42:08.671Z,25.13
2017-07-23T09:44:38.151Z,25.54
2017-07-23T09:47:07.605Z,25.91
2017-07-23T09:49:37.041Z,26.52
2017-07-23T09:52:06.492Z,26.29
2017-07-23T09:54:35.943Z,26.67
2017-07-23T09:57:05.375Z,25.98
2017-07-23T09:59:34.836Z,26.38
2017-07-23T10:02:04.305Z,26.68
2017-07-23T10:04:33.756Z,26.48
2017-07-23T10:07:03.189Z,25.89
2017-07-23T10:09:32.646Z,26.05
2017-07-23T10:12:02.187Z,26.40
2017-07-23T10:14:32.313Z,26.71
2017-07-23T10:17:01.766Z,26.58
2017-07-23T10:19:31.215Z,26.72
2017-07-23T10:22:00.509Z,26.80
2017-07-23T10:24:29.951Z,26.78
2017-07-23T10:26:59.419Z,27.42
2017-07-23T10:29:28.887Z,27.30
2017-07-23T10:31:58.349Z,27.21
2017-07-23T10:34:27.784Z,27.03
2017-07-23T10:36:57.272Z,27.29
2017-07-23T10:39:26.724Z,27.57
2017-07-23T10:41:56.168Z,27.07
2017-07-23T10:44:25.611Z,27.34
2017-07-23T10:46:55.083Z,27.86
2017-07-23T10:49:24.517Z,28.13
2017-07-23T10:51:53.981Z,27.35
2017-07-23T10:54:23.441Z,27.80
2017-07-23T10:56:52.901Z,27.68
2017-07-23T10:59:22.355Z,27.89
2017-07-23T11:01:51.788Z,28.16
2017-07-23T11:04:21.229Z,28.13
2017-07-23T11:06:50.765Z,28.28
2017-07-23T11:09:20.205Z,27.64
2017-07-23T11:11:49.653Z,28.01
2017-07-23T11:14:19.089Z,27.69
2017-07-23T11:16:48.528Z,27.86
2017-07-23T11:19:17.978Z,27.32
2017-07-23T11:21:47.430Z,27.25
2017-07-23T11:24:16.884Z,27.76
2017-07-23T11:26:46.327Z,27.69
2017-07-23T11:29:15.769Z,27.08
2017-07-23T11:31:45.234Z,27.28
2017-07-23T11:34:14.678Z,27.70
2017-07-23T11:36:44.133Z,27.68
2017-07-23T11:39:13.407Z,27.53
2017-07-23T11:41:42.828Z,27.82
2017-07-23T11:44:12.298Z,27.51
2017-07-23T11:46:41.760Z,27.50
2017-07-23T11:49:11.193Z,27.83
2017-07-23T11:51:40.641Z,27.74
2017-07-23T11:54:10.105Z,27.79
2017-07-23T11:56:39.552Z,28.09
2017-07-23T11:59:08.993Z,28.58
2017-07-23T12:01:38.449Z,28.68
2017-07-23T12:04:07.891Z,29.24
2017-07-23T12:06:37.340Z,29.27
2017-07-23T12:09:06.776Z,29.01
2017-07-23T12:11:36.271Z,29.67
2017-07-23T12:14:05.720Z,29.28
2017-07-23T12:16:35.153Z,29.67
2017-07-23T12:19:04.405Z,29.60
2017-07-23T12:21:33.852Z,30.19
2017-07-23T12:24:03.335Z,30.40
2017-07-23T12:26:32.783Z,29.97
2017-07-23T12:29:02.234Z,29.26
2017-07-23T12:31:31.681Z,29.64
2017-07-23T12:34:01.146Z,30.92
2017-07-23T12:36:30.585Z,31.44
2017-07-23T12:39:00.043Z,31.37
2017-07-23T12:41:29.476Z,31.86
2017-07-23T12:43:58.958Z,31.12
2017-07-23T12:46:28.412Z,31.44
2017-07-23T12:48:57.853Z,32.20
2017-07-23T12:51:27.325Z,33.50
2017-07-23T12:53:56.805Z,33.26
2017-07-23T12:56:26.261Z,33.94
2017-07-23T12:58:55.717Z,35.26
2017-07-23T13:01:25.165Z,35.49
2017-07-23T13:03:54.652Z,35.23
2017-07-23T13:06:24.096Z,36.90
2017-07-23T13:08:53.546Z,36.57
2017-07-23T13:11:22.998Z,36.32
2017-07-23T13:13:52.437Z,35.33
2017-07-23T13:16:21.912Z,35.51
2017-07-23T13:18:51.379Z,34.20
2017-07-23T13:21:20.838Z,33.88
2017-07-23T13:23:50.272Z,34.30
2017-07-23T13:26:19.719Z,34.64
2017-07-23T13:28:49.226Z,34.55
2017-07-23T13:31:18.688Z,35.96
2017-07-23T13:33:48.164Z,36.14
2017-07-23T13:36:17.626Z,35.91
2017-07-23T13:38:47.064Z,35.20
2017-07-23T13:41:16.513Z,35.48
2017-07-23T13:43:45.964Z,36.11
2017-07-23T13:46:15.399Z,35.44
2017-07-23T13:48:44.845Z,35.11
2017-07-23T13:51:14.301Z,35.67
2017-07-23T13:53:43.742Z,35.20
2017-07-23T13:56:13.186Z,34.76
2017-07-23T13:58:42.630Z,33.96
2017-07-23T14:01:12.074Z,34.79
2017-07-23T14:03:41.522Z,33.87
2017-07-23T14:06:10.957Z,32.51
2017-07-23T14:08:40.414Z,32.33
2017-07-23T14:11:09.872Z,32.40
2017-07-23T14:13:39.309Z,32.77
2017-07-23T14:16:08.754Z,32.83
2017-07-23T14:18:38.213Z,33.90
2017-07-23T14:21:07.674Z,34.32
2017-07-23T14:23:37.118Z,33.31
2017-07-23T14:26:06.563Z,33.88
2017-07-23T14:28:36.030Z,34.39
2017-07-23T14:31:05.505Z,33.58
2017-07-23T14:33:34.953Z,33.32
2017-07-23T14:36:04.415Z,31.76
2017-07-23T14:38:33.869Z,31.52
2017-07-23T14:41:03.303Z,32.02
2017-07-23T14:43:32.753Z,31.55
2017-07-23T14:46:02.191Z,31.90
2017-07-23T14:48:31.629Z,31.59
2017-07-23T14:51:01.092Z,32.22
2017-07-23T14:53:30.659Z,32.48
2017-07-23T14:56:00.169Z,33.41
2017-07-23T14:58:29.616Z,32.84
2017-07-23T15:00:59.069Z,34.52
2017-07-23T15:03:28.523Z,34.60
2017-07-23T15:05:57.962Z,35.62
2017-07-23T15:08:27.409Z,34.03
2017-07-23T15:10:56.851Z,35.49
2017-07-23T15:13:26.296Z,36.27
2017-07-23T15:15:55.741Z,37.14
2017-07-23T15:18:25.192Z,35.45
2017-07-23T15:20:54.645Z,36.76
2017-07-23T15:23:24.112Z,37.44
2017-07-23T15:25:53.576Z,36.26
2017-07-23T15:28:23.024Z,36.30
2017-07-23T15:30:52.472Z,37.83
2017-07-23T15:33:21.737Z,36.75
2017-07-23T15:35:51.221Z,36.23
2017-07-23T15:38:20.739Z,34.04
2017-07-23T15:40:50.184Z,33.86
2017-07-23T15:43:19.649Z,32.34
2017-07-23T15:45:49.086Z,33.65
2017-07-23T15:48:18.530Z,34.26
2017-07-23T15:50:48.000Z,34.88
2017-07-23T15:53:17.463Z,34.98
2017-07-23T15:55:46.914Z,34.09
2017-07-23T15:58:16.373Z,35.45
2017-07-23T16:00:45.635Z,35.79
2017-07-23T16:03:15.082Z,35.34
2017-07-23T16:05:44.541Z,35.94
2017-07-23T16:08:14.013Z,35.71
2017-07-23T16:10:43.477Z,36.49
2017-07-23T16:13:12.919Z,36.50
2017-07-23T16:15:42.399Z,37.31
2017-07-23T16:18:11.840Z,36.90
2017-07-23T16:20:41.284Z,37.18
2017-07-23T16:23:10.744Z,36.66
2017-07-23T16:25:40.192Z,35.65
2017-07-23T16:28:09.636Z,34.64
2017-07-23T16:30:39.081Z,33.85
2017-07-23T16:33:08.549Z,33.37
2017-07-23T16:35:38.700Z,32.85
2017-07-23T16:38:08.167Z,32.88
2017-07-23T16:40:37.607Z,32.60
2017-07-23T16:43:07.073Z,33.33
2017-07-23T16:45:36.544Z,33.44
2017-07-23T16:48:06.018Z,32.43
2017-07-23T16:50:35.477Z,31.66
2017-07-23T16:53:04.922Z,31.01
2017-07-23T16:55:34.385Z,30.97
2017-07-23T16:58:03.838Z,30.44
2017-07-23T17:00:33.289Z,29.61
2017-07-23T17:03:02.737Z,29.27
2017-07-23T17:05:32.220Z,28.66
2017-07-23T17:08:01.741Z,28.61
2017-07-23T17:10:31.181Z,28.39
2017-07-23T17:13:00.441Z,27.99
2017-07-23T17:15:29.904Z,27.64
2017-07-23T17:17:59.349Z,27.70
2017-07-23T17:20:28.801Z,27.76
2017-07-23T17:22:58.304Z,27.70
2017-07-23T17:25:27.769Z,27.38
2017-07-23T17:27:57.223Z,28.27
2017-07-23T17:30:26.691Z,29.01
2017-07-23T17:32:56.155Z,29.71
2017-07-23T17:35:25.596Z,30.64
2017-07-23T17:37:55.056Z,30.92
2017-07-23T17:40:24.539Z,30.73
2017-07-23T17:42:53.999Z,30.13
2017-07-23T17:45:23.458Z,29.84
2017-07-23T17:47:52.924Z,29.34
2017-07-23T17:50:23.024Z,28.82
2017-07-23T17:52:52.460Z,28.48
2017-07-23T17:55:21.940Z,27.67
2017-07-23T17:57:51.420Z,27.91
2017-07-23T18:00:20.921Z,27.48
2017-07-23T18:02:50.198Z,27.12
2017-07-23T18:05:19.672Z,27.03
2017-07-23T18:07:49.154Z,26.92
2017-07-23T18:10:18.637Z,26.77
2017-07-23T18:12:48.088Z,26.61
2017-07-23T18:15:17.581Z,26.51
2017-07-23T18:17:47.021Z,26.38
2017-07-23T18:20:16.510Z,26.39
2017-07-23T18:22:45.951Z,26.26
2017-07-23T18:25:15.441Z,26.19
2017-07-23T18:27:44.970Z,26.03
2017-07-23T18:30:14.457Z,25.94
2017-07-23T18:32:43.925Z,25.98
2017-07-23T18:35:13.454Z,25.88
2017-07-23T18:37:42.902Z,25.83
2017-07-23T18:40:13.137Z,25.24
2017-07-23T18:42:42.666Z,24.99
2017-07-23T18:45:12.189Z,24.55
2017-07-23T18:47:41.676Z,24.38
2017-07-23T18:50:11.186Z,24.19
2017-07-23T18:52:40.701Z,24.07
2017-07-23T18:55:10.204Z,23.91
2017-07-23T18:57:39.661Z,23.81
2017-07-23T19:00:09.298Z,23.71
2017-07-23T19:02:38.770Z,23.48
2017-07-23T19:05:07.961Z,23.30
2017-07-23T19:07:37.400Z,23.00
2017-07-23T19:10:07.460Z,22.90
2017-07-23T19:12:36.914Z,22.77
2017-07-23T19:15:06.248Z,22.63
2017-07-23T19:17:35.697Z,22.50
2017-07-23T19:20:05.306Z,22.40
2017-07-23T19:22:34.762Z,22.33
2017-07-23T19:25:04.284Z,22.17
2017-07-23T19:27:33.729Z,22.16
2017-07-23T19:30:03.211Z,22.13
2017-07-23T19:32:32.754Z,22.09
2017-07-23T19:35:02.343Z,22.07
2017-07-23T19:37:31.821Z,22.02
2017-07-23T19:40:01.257Z,21.96
2017-07-23T19:42:30.709Z,21.92
2017-07-23T19:45:00.156Z,21.91
2017-07-23T19:47:29.598Z,21.86
2017-07-23T19:49:59.052Z,21.83
2017-07-23T19:52:28.492Z,21.83
2017-07-23T19:54:57.946Z,21.77
2017-07-23T19:57:27.393Z,21.72
2017-07-23T19:59:56.866Z,21.69
2017-07-23T20:02:26.382Z,21.63
2017-07-23T20:04:55.836Z,21.62
2017-07-23T20:07:25.320Z,21.60
2017-07-23T20:09:54.755Z,21.58
2017-07-23T20:12:24.198Z,21.56
2017-07-23T20:14:54.458Z,21.53
2017-07-23T20:17:23.924Z,21.51
2017-07-23T20:19:53.482Z,21.48
2017-07-23T20:22:22.936Z,21.54
2017-07-23T20:24:52.418Z,21.59
2017-07-23T20:27:22.558Z,21.60
2017-07-23T20:29:51.994Z,21.61
2017-07-23T20:32:21.443Z,21.60
2017-07-23T20:34:50.881Z,21.58
2017-07-23T20:37:20.334Z,21.60
2017-07-23T20:39:49.780Z,21.58
2017-07-23T20:42:19.208Z,21.56
2017-07-23T20:44:48.669Z,21.56
2017-07-23T20:47:18.109Z,21.57
2017-07-23T20:49:47.552Z,21.62
2017-07-23T20:52:17.012Z,21.58
2017-07-23T20:54:46.214Z,21.60
2017-07-23T20:57:15.648Z,21.59
2017-07-23T20:59:45.104Z,21.61
2017-07-23T21:02:14.549Z,21.60
2017-07-23T21:04:43.998Z,21.57
2017-07-23T21:07:13.471Z,21.58
2017-07-23T21:09:42.932Z,21.56
2017-07-23T21:12:12.382Z,21.52
2017-07-23T21:14:41.853Z,21.50
2017-07-23T21:17:11.307Z,21.49
2017-07-23T21:19:40.743Z,21.49
2017-07-23T21:22:10.187Z,21.47
2017-07-23T21:24:39.641Z,21.46
2017-07-23T21:27:09.158Z,21.45
2017-07-23T21:29:38.594Z,21.42
2017-07-23T21:32:08.056Z,21.38
2017-07-23T21:34:37.496Z,21.38
2017-07-23T21:37:06.948Z,21.36
2017-07-23T21:39:36.450Z,21.36
2017-07-23T21:42:05.901Z,21.34
2017-07-23T21:44:35.364Z,21.31
2017-07-23T21:47:04.824Z,21.26
2017-07-23T21:49:34.264Z,21.25
2017-07-23T21:52:03.720Z,21.23
2017-07-23T21:54:33.169Z,21.20
2017-07-23T21:57:02.625Z,21.18
2017-07-23T21:59:32.060Z,21.18
2017-07-23T22:02:01.520Z,21.17
2017-07-23T22:04:30.977Z,21.16
2017-07-23T22:07:00.424Z,21.14
2017-07-23T22:09:29.868Z,21.12
2017-07-23T22:11:59.316Z,21.11
2017-07-23T22:14:28.780Z,21.07
2017-07-23T22:16:58.220Z,21.09
2017-07-23T22:19:27.679Z,21.07
2017-07-23T22:21:57.113Z,21.04
2017-07-23T22:24:26.581Z,21.02
2017-07-23T22:26:56.036Z,21.02
2017-07-23T22:29:25.488Z,20.92
2017-07-23T22:31:54.940Z,20.82
2017-07-23T22:34:24.382Z,20.70
2017-07-23T22:36:53.840Z,20.69
2017-07-23T22:39:23.274Z,20.65
2017-07-23T22:41:52.727Z,20.57
2017-07-23T22:44:22.165Z,20.53
2017-07-23T22:46:51.610Z,20.52
2017-07-23T22:49:21.075Z,20.53
2017-07-23T22:51:50.513Z,20.43
2017-07-23T22:54:19.957Z,20.36
2017-07-23T22:56:49.403Z,20.27
2017-07-23T22:59:18.914Z,20.17
2017-07-23T23:01:48.349Z,20.12
2017-07-23T23:04:17.796Z,20.07
2017-07-23T23:06:47.266Z,20.00
2017-07-23T23:09:16.698Z,19.92
2017-07-23T23:11:46.120Z,19.78
2017-07-23T23:14:15.568Z,19.73
2017-07-23T23:16:45.012Z,19.59
2017-07-23T23:19:14.458Z,19.44
2017-07-23T23:21:43.906Z,19.29
2017-07-23T23:24:13.357Z,19.18
2017-07-23T23:26:42.618Z,19.12
2017-07-23T23:29:12.092Z,18.99
2017-07-23T23:31:41.541Z,18.90
2017-07-23T23:34:10.984Z,18.88
2017-07-23T23:36:40.456Z,18.84
2017-07-23T23:39:09.928Z,18.81
2017-07-23T23:41:39.367Z,18.81
2017-07-23T23:44:08.811Z,18.86
2017-07-23T23:46:38.264Z,18.85
2017-07-23T23:49:07.698Z,18.81
2017-07-23T23:51:37.159Z,18.87
2017-07-23T23:54:06.605Z,18.88
2017-07-23T23:56:36.044Z,18.91
2017-07-23T23:59:05.494Z,18.90
